createdAt,value
2018-08-28T00:00:43.293Z,19.65
2018-08-28T00:03:11.575Z,19.68
2018-08-28T00:05:39.790Z,19.70
2018-08-28T00:08:08.016Z,19.73
2018-08-28T00:10:36.322Z,19.74
2018-08-28T00:13:04.950Z,19.77
2018-08-28T00:15:33.279Z,19.80
2018-08-28T00:18:01.514Z,19.82
2018-08-28T00:20:29.765Z,19.81
2018-08-28T00:22:58.194Z,19.80
2018-08-28T00:25:26.503Z,19.78
2018-08-28T00:27:54.808Z,19.78
2018-08-28T00:30:23.083Z,19.75
2018-08-28T00:32:51.443Z,19.73
2018-08-28T00:35:19.755Z,19.70
2018-08-28T00:37:48.053Z,19.66
2018-08-28T00:40:16.367Z,19.63
2018-08-28T00:42:44.598Z,19.59
2018-08-28T00:45:12.874Z,19.54
2018-08-28T00:47:41.146Z,19.50
2018-08-28T00:50:09.457Z,19.43
2018-08-28T00:52:37.734Z,19.36
2018-08-28T00:55:06.053Z,19.30
2018-08-28T00:57:34.326Z,19.26
2018-08-28T01:00:02.582Z,19.19
2018-08-28T01:02:30.917Z,19.13
2018-08-28T01:04:59.228Z,19.09
2018-08-28T01:07:27.506Z,19.02
2018-08-28T01:09:55.803Z,18.97
2018-08-28T01:12:24.096Z,18.92
2018-08-28T01:14:52.328Z,18.89
2018-08-28T01:17:20.611Z,18.84
2018-08-28T01:19:48.875Z,18.78
2018-08-28T01:22:17.146Z,18.75
2018-08-28T01:24:45.422Z,18.72
2018-08-28T01:27:13.727Z,18.67
2018-08-28T01:29:41.973Z,18.63
2018-08-28T01:32:10.247Z,18.61
2018-08-28T01:34:38.590Z,18.56
2018-08-28T01:37:06.980Z,18.53
2018-08-28T01:39:35.272Z,18.50
2018-08-28T01:42:03.558Z,18.46
2018-08-28T01:44:31.885Z,18.44
2018-08-28T01:47:00.266Z,18.43
2018-08-28T01:49:28.482Z,18.41
2018-08-28T01:51:58.163Z,18.38
2018-08-28T01:54:26.487Z,18.35
2018-08-28T01:56:54.746Z,18.33
2018-08-28T01:59:23.035Z,18.28
2018-08-28T02:01:51.318Z,18.26
2018-08-28T02:04:19.606Z,18.23
2018-08-28T02:06:47.847Z,18.20
2018-08-28T02:09:16.097Z,18.17
2018-08-28T02:11:44.333Z,18.14
2018-08-28T02:14:12.594Z,18.12
2018-08-28T02:16:40.902Z,18.10
2018-08-28T02:19:09.158Z,18.09
2018-08-28T02:21:37.493Z,18.07
2018-08-28T02:24:06.143Z,18.05
2018-08-28T02:26:34.558Z,18.03
2018-08-28T02:29:02.881Z,18.02
2018-08-28T02:31:31.223Z,18.01
2018-08-28T02:33:59.459Z,18.01
2018-08-28T02:36:27.738Z,18.03
2018-08-28T02:38:56.033Z,18.03
2018-08-28T02:41:24.284Z,18.01
2018-08-28T02:43:52.539Z,17.99
2018-08-28T02:46:20.769Z,17.96
2018-08-28T02:48:49.009Z,17.96
2018-08-28T02:51:17.327Z,17.94
2018-08-28T02:53:45.655Z,17.90
2018-08-28T02:56:13.900Z,17.86
2018-08-28T02:58:42.167Z,17.84
2018-08-28T03:01:10.452Z,17.80
2018-08-28T03:03:38.712Z,17.77
2018-08-28T03:06:06.989Z,17.75
2018-08-28T03:08:35.199Z,17.73
2018-08-28T03:11:03.474Z,17.71
2018-08-28T03:13:31.746Z,17.69
2018-08-28T03:16:00.061Z,17.69
2018-08-28T03:18:28.374Z,17.69
2018-08-28T03:20:56.735Z,17.65
2018-08-28T03:23:24.977Z,17.63
2018-08-28T03:25:53.269Z,17.59
2018-08-28T03:28:21.586Z,17.59
2018-08-28T03:30:49.898Z,17.60
2018-08-28T03:33:18.251Z,17.59
2018-08-28T03:35:46.500Z,17.60
2018-08-28T03:38:15.010Z,17.59
2018-08-28T03:40:43.254Z,17.57
2018-08-28T03:43:11.504Z,17.56
2018-08-28T03:45:39.742Z,17.53
2018-08-28T03:48:08.088Z,17.50
2018-08-28T03:50:36.393Z,17.48
2018-08-28T03:53:05.173Z,17.46
2018-08-28T03:55:33.460Z,17.43
2018-08-28T03:58:01.723Z,17.41
2018-08-28T04:00:30.018Z,17.40
2018-08-28T04:02:58.319Z,17.37
2018-08-28T04:05:26.577Z,17.36
2018-08-28T04:07:54.855Z,17.36
2018-08-28T04:10:23.114Z,17.35
2018-08-28T04:12:51.398Z,17.36
2018-08-28T04:15:19.726Z,17.35
2018-08-28T04:17:50.018Z,17.34
2018-08-28T04:20:19.593Z,17.32
2018-08-28T04:22:48.065Z,17.30
2018-08-28T04:25:17.183Z,17.28
2018-08-28T04:27:45.981Z,17.30
2018-08-28T04:30:14.314Z,17.31
2018-08-28T04:34:50.845Z,17.31
2018-08-28T04:37:20.590Z,17.28
2018-08-28T04:39:48.878Z,17.27
2018-08-28T04:42:17.118Z,17.26
2018-08-28T04:44:45.446Z,17.26
2018-08-28T04:47:13.825Z,17.27
2018-08-28T04:49:42.124Z,17.27
2018-08-28T04:52:10.544Z,17.27
2018-08-28T04:54:38.967Z,17.28
2018-08-28T04:57:07.285Z,17.25
2018-08-28T04:59:35.522Z,17.26
2018-08-28T05:02:03.915Z,17.27
2018-08-28T05:04:32.270Z,17.26
2018-08-28T05:07:00.658Z,17.25
2018-08-28T05:09:28.910Z,17.24
2018-08-28T05:11:57.299Z,17.21
2018-08-28T05:14:25.629Z,17.23
2018-08-28T05:16:53.960Z,17.22
2018-08-28T05:19:22.315Z,17.22
2018-08-28T05:21:50.481Z,17.22
2018-08-28T05:24:18.754Z,17.22
2018-08-28T05:26:47.037Z,17.23
2018-08-28T05:29:15.666Z,17.26
2018-08-28T05:31:44.037Z,17.25
2018-08-28T05:34:12.289Z,17.28
2018-08-28T05:36:40.654Z,17.29
2018-08-28T05:39:08.988Z,17.30
2018-08-28T05:41:37.458Z,17.32
2018-08-28T05:44:05.782Z,17.35
2018-08-28T05:46:34.067Z,17.37
2018-08-28T05:49:02.998Z,17.40
2018-08-28T05:51:31.251Z,17.42
2018-08-28T05:53:59.483Z,17.44
2018-08-28T05:56:27.851Z,17.45
2018-08-28T05:58:56.125Z,17.48
2018-08-28T06:01:24.383Z,17.51
2018-08-28T06:03:52.662Z,17.53
2018-08-28T06:06:20.920Z,17.57
2018-08-28T06:08:49.272Z,17.58
2018-08-28T06:11:17.731Z,17.61
2018-08-28T06:13:46.106Z,17.62
2018-08-28T06:16:14.357Z,17.64
2018-08-28T06:18:42.708Z,17.66
2018-08-28T06:21:11.171Z,17.69
2018-08-28T06:23:39.507Z,17.72
2018-08-28T06:26:07.865Z,17.76
2018-08-28T06:28:36.112Z,17.79
2018-08-28T06:31:04.494Z,17.82
2018-08-28T06:33:32.810Z,17.86
2018-08-28T06:36:01.182Z,17.88
2018-08-28T06:38:29.534Z,17.92
2018-08-28T06:40:57.809Z,17.95
2018-08-28T06:43:26.097Z,17.97
2018-08-28T06:45:54.612Z,18.01
2018-08-28T06:48:22.889Z,18.04
2018-08-28T06:50:51.233Z,18.08
2018-08-28T06:53:19.606Z,18.11
2018-08-28T06:55:47.877Z,18.16
2018-08-28T06:58:16.129Z,18.22
2018-08-28T07:00:44.365Z,18.24
2018-08-28T07:03:12.637Z,18.25
2018-08-28T07:05:40.956Z,18.30
2018-08-28T07:08:09.263Z,18.33
2018-08-28T07:10:37.553Z,18.35
2018-08-28T07:13:05.914Z,18.39
2018-08-28T07:15:34.247Z,18.43
2018-08-28T07:18:02.618Z,18.46
2018-08-28T07:20:30.871Z,18.49
2018-08-28T07:22:59.147Z,18.53
2018-08-28T07:25:27.407Z,18.56
2018-08-28T07:27:55.656Z,18.59
2018-08-28T07:30:24.070Z,18.60
2018-08-28T07:32:52.395Z,18.64
2018-08-28T07:35:20.702Z,18.67
2018-08-28T07:37:48.986Z,18.70
2018-08-28T07:40:17.275Z,18.73
2018-08-28T07:42:45.609Z,18.75
2018-08-28T07:45:13.875Z,18.76
2018-08-28T07:47:42.149Z,18.80
2018-08-28T07:50:10.374Z,18.83
2018-08-28T07:52:38.744Z,18.83
2018-08-28T07:55:07.059Z,18.84
2018-08-28T07:57:35.423Z,18.87
2018-08-28T08:00:03.747Z,18.87
2018-08-28T08:02:32.053Z,18.89
2018-08-28T08:05:00.337Z,18.89
2018-08-28T08:07:28.666Z,18.91
2018-08-28T08:09:56.997Z,18.89
2018-08-28T08:12:25.273Z,18.90
2018-08-28T08:14:53.943Z,18.93
2018-08-28T08:17:22.280Z,18.95
2018-08-28T08:19:50.495Z,19.00
2018-08-28T08:22:18.902Z,19.05
2018-08-28T08:24:47.117Z,19.09
2018-08-28T08:27:15.413Z,19.15
2018-08-28T08:29:43.694Z,19.20
2018-08-28T08:32:12.005Z,19.22
2018-08-28T08:34:40.321Z,19.23
2018-08-28T08:37:08.699Z,19.26
2018-08-28T08:39:37.018Z,19.24
2018-08-28T08:42:05.352Z,19.27
2018-08-28T08:44:33.597Z,19.31
2018-08-28T08:47:01.862Z,19.36
2018-08-28T08:49:30.150Z,19.38
2018-08-28T08:51:58.493Z,19.39
2018-08-28T08:54:26.833Z,19.40
2018-08-28T08:56:55.958Z,19.42
2018-08-28T08:59:24.239Z,19.43
2018-08-28T09:01:52.470Z,19.48
2018-08-28T09:04:20.882Z,19.53
2018-08-28T09:06:49.087Z,19.55
2018-08-28T09:09:17.355Z,19.59
2018-08-28T09:11:45.597Z,19.64
2018-08-28T09:14:13.906Z,19.64
2018-08-28T09:16:42.221Z,19.67
2018-08-28T09:19:10.713Z,19.74
2018-08-28T09:21:38.964Z,19.77
2018-08-28T09:24:07.201Z,19.84
2018-08-28T09:26:35.492Z,19.89
2018-08-28T09:29:03.857Z,19.96
2018-08-28T09:31:32.173Z,20.00
2018-08-28T09:34:00.479Z,20.02
2018-08-28T09:36:28.856Z,19.99
2018-08-28T09:38:57.154Z,19.95
2018-08-28T09:41:25.419Z,19.92
2018-08-28T09:43:53.715Z,19.93
2018-08-28T09:46:21.934Z,19.96
2018-08-28T09:48:50.231Z,19.98
2018-08-28T09:51:18.546Z,20.01
2018-08-28T09:53:46.876Z,20.05
2018-08-28T09:56:15.182Z,20.11
2018-08-28T09:58:43.476Z,20.20
2018-08-28T10:01:16.987Z,20.26
2018-08-28T10:03:45.336Z,20.31
2018-08-28T10:06:13.641Z,20.41
2018-08-28T10:08:41.912Z,20.56
2018-08-28T10:11:10.534Z,20.74
2018-08-28T10:13:38.789Z,20.89
2018-08-28T10:16:07.091Z,21.03
2018-08-28T10:18:35.447Z,21.15
2018-08-28T10:21:03.712Z,21.23
2018-08-28T10:23:32.001Z,21.32
2018-08-28T10:26:00.309Z,21.32
2018-08-28T10:28:28.578Z,21.38
2018-08-28T10:30:56.837Z,21.53
2018-08-28T10:33:25.121Z,21.69
2018-08-28T10:35:53.401Z,21.82
2018-08-28T10:38:21.631Z,21.92
2018-08-28T10:40:49.970Z,21.97
2018-08-28T10:43:18.235Z,22.04
2018-08-28T10:45:46.570Z,22.13
2018-08-28T10:48:14.901Z,22.14
2018-08-28T10:50:43.166Z,22.09
2018-08-28T10:53:11.411Z,22.11
2018-08-28T10:55:39.749Z,22.08
2018-08-28T10:58:08.041Z,22.03
2018-08-28T11:00:36.340Z,22.01
2018-08-28T11:03:04.702Z,22.03
2018-08-28T11:05:32.918Z,22.09
2018-08-28T11:08:01.187Z,22.06
2018-08-28T11:10:29.538Z,22.04
2018-08-28T11:12:57.985Z,21.96
2018-08-28T11:15:26.294Z,21.89
2018-08-28T11:17:54.630Z,21.82
2018-08-28T11:20:22.916Z,21.87
2018-08-28T11:22:51.309Z,22.12
2018-08-28T11:25:19.626Z,22.39
2018-08-28T11:27:47.995Z,22.60
2018-08-28T11:30:16.310Z,22.87
2018-08-28T11:32:44.938Z,23.00
2018-08-28T11:35:13.217Z,22.97
2018-08-28T11:37:41.491Z,22.96
2018-08-28T11:40:09.791Z,22.93
2018-08-28T11:42:38.041Z,22.95
2018-08-28T11:45:06.719Z,23.08
2018-08-28T11:47:34.958Z,23.38
2018-08-28T11:50:03.231Z,23.65
2018-08-28T11:52:31.665Z,23.87
2018-08-28T11:54:59.908Z,24.11
2018-08-28T11:57:28.130Z,24.34
2018-08-28T11:59:56.395Z,24.41
2018-08-28T12:02:24.691Z,24.45
2018-08-28T12:04:53.168Z,24.58
2018-08-28T12:07:21.876Z,24.71
2018-08-28T12:09:50.115Z,24.88
2018-08-28T12:12:18.394Z,25.01
2018-08-28T12:14:46.681Z,25.20
2018-08-28T12:17:15.225Z,25.44
2018-08-28T12:19:43.519Z,25.61
2018-08-28T12:22:11.733Z,25.79
2018-08-28T12:24:39.967Z,25.90
2018-08-28T12:27:08.226Z,26.00
2018-08-28T12:29:36.531Z,26.06
2018-08-28T12:32:04.774Z,26.10
2018-08-28T12:34:32.998Z,26.19
2018-08-28T12:37:01.266Z,26.32
2018-08-28T12:39:29.467Z,26.44
2018-08-28T12:41:57.674Z,26.55
2018-08-28T12:44:25.970Z,26.69
2018-08-28T12:46:54.698Z,26.89
2018-08-28T12:49:22.920Z,27.13
2018-08-28T12:51:51.160Z,27.30
2018-08-28T12:54:19.510Z,27.25
2018-08-28T12:56:47.927Z,27.25
2018-08-28T12:59:16.230Z,27.41
2018-08-28T13:01:44.502Z,27.58
2018-08-28T13:04:12.753Z,27.70
2018-08-28T13:06:41.013Z,27.81
2018-08-28T13:09:09.295Z,27.96
2018-08-28T13:11:37.599Z,28.12
2018-08-28T13:14:06.031Z,28.23
2018-08-28T13:16:34.398Z,28.38
2018-08-28T13:19:02.822Z,28.44
2018-08-28T13:21:31.041Z,28.45
2018-08-28T13:23:59.349Z,28.48
2018-08-28T13:26:27.697Z,28.61
2018-08-28T13:28:55.907Z,28.77
2018-08-28T13:31:24.273Z,28.87
2018-08-28T13:33:52.542Z,28.98
2018-08-28T13:36:20.865Z,29.11
2018-08-28T13:38:49.117Z,29.31
2018-08-28T13:41:17.470Z,29.41
2018-08-28T13:43:45.730Z,29.53
2018-08-28T13:46:13.974Z,29.67
2018-08-28T13:48:42.245Z,29.91
2018-08-28T13:51:10.559Z,30.05
2018-08-28T13:53:38.907Z,29.98
2018-08-28T13:56:07.109Z,29.78
2018-08-28T13:58:35.513Z,29.81
2018-08-28T14:01:03.891Z,29.89
2018-08-28T14:03:32.205Z,29.89
2018-08-28T14:06:00.539Z,30.00
2018-08-28T14:08:28.805Z,30.12
2018-08-28T14:10:57.048Z,30.35
2018-08-28T14:13:25.449Z,30.55
2018-08-28T14:15:53.628Z,30.63
2018-08-28T14:18:21.978Z,30.74
2018-08-28T14:20:50.254Z,30.85
2018-08-28T14:23:18.523Z,30.73
2018-08-28T14:25:46.793Z,30.65
2018-08-28T14:28:15.102Z,30.48
2018-08-28T14:30:43.363Z,30.36
2018-08-28T14:33:11.635Z,30.10
2018-08-28T14:35:40.021Z,29.96
2018-08-28T14:38:08.277Z,29.86
2018-08-28T14:40:36.557Z,29.67
2018-08-28T14:43:04.842Z,29.40
2018-08-28T14:45:33.175Z,29.11
2018-08-28T14:48:01.533Z,28.85
2018-08-28T14:50:29.915Z,28.64
2018-08-28T14:52:58.143Z,28.41
2018-08-28T14:55:26.460Z,28.12
2018-08-28T14:57:54.767Z,27.83
2018-08-28T15:00:23.027Z,27.62
2018-08-28T15:02:51.351Z,27.48
2018-08-28T15:05:19.638Z,27.37
2018-08-28T15:07:47.914Z,27.27
2018-08-28T15:10:16.221Z,27.21
2018-08-28T15:12:44.506Z,27.14
2018-08-28T15:15:12.769Z,27.08
2018-08-28T15:17:41.056Z,27.01
2018-08-28T15:20:09.413Z,26.96
2018-08-28T15:22:38.041Z,26.95
2018-08-28T15:25:06.863Z,26.95
2018-08-28T15:27:35.165Z,26.91
2018-08-28T15:30:03.447Z,26.88
2018-08-28T15:32:31.769Z,26.90
2018-08-28T15:35:00.018Z,26.93
2018-08-28T15:37:28.433Z,26.93
2018-08-28T15:39:56.704Z,27.03
2018-08-28T15:42:24.950Z,27.19
2018-08-28T15:44:53.397Z,27.25
2018-08-28T15:47:21.725Z,27.21
2018-08-28T15:49:50.042Z,27.21
2018-08-28T15:52:18.303Z,27.27
2018-08-28T15:54:46.544Z,27.24
2018-08-28T15:57:14.877Z,27.22
2018-08-28T15:59:43.150Z,27.28
2018-08-28T16:02:11.648Z,27.39
2018-08-28T16:04:39.859Z,27.51
2018-08-28T16:07:08.063Z,27.48
2018-08-28T16:09:36.425Z,27.49
2018-08-28T16:12:04.762Z,27.70
2018-08-28T16:14:33.038Z,27.86
2018-08-28T16:17:01.324Z,27.81
2018-08-28T16:19:29.661Z,27.50
2018-08-28T16:21:59.541Z,27.14
2018-08-28T16:24:27.838Z,26.81
2018-08-28T16:26:56.509Z,26.59
2018-08-28T16:29:24.786Z,26.52
2018-08-28T16:31:53.198Z,26.88
2018-08-28T16:34:21.491Z,27.24
2018-08-28T16:36:49.754Z,27.45
2018-08-28T16:39:18.111Z,27.50
2018-08-28T16:41:46.512Z,27.46
2018-08-28T16:44:14.855Z,27.37
2018-08-28T16:46:43.145Z,27.17
2018-08-28T16:49:11.415Z,26.99
2018-08-28T16:51:39.650Z,26.83
2018-08-28T16:54:07.931Z,26.70
2018-08-28T16:56:36.174Z,26.59
2018-08-28T16:59:04.759Z,26.52
2018-08-28T17:01:33.157Z,26.43
2018-08-28T17:04:07.977Z,26.35
2018-08-28T17:06:36.276Z,26.26
2018-08-28T17:09:05.225Z,26.18
2018-08-28T17:11:33.570Z,26.09
2018-08-28T17:14:01.844Z,25.99
2018-08-28T17:16:30.207Z,25.86
2018-08-28T17:18:58.581Z,25.75
2018-08-28T17:21:26.906Z,25.65
2018-08-28T17:23:55.198Z,25.54
2018-08-28T17:26:23.474Z,25.43
2018-08-28T17:28:51.736Z,25.33
2018-08-28T17:31:20.010Z,25.24
2018-08-28T17:33:48.315Z,25.14
2018-08-28T17:36:16.638Z,25.07
2018-08-28T17:38:44.942Z,24.99
2018-08-28T17:41:13.257Z,24.92
2018-08-28T17:43:41.528Z,24.86
2018-08-28T17:46:10.166Z,24.79
2018-08-28T17:48:38.406Z,24.70
2018-08-28T17:51:06.734Z,24.62
2018-08-28T17:53:35.042Z,24.52
2018-08-28T17:56:03.323Z,24.45
2018-08-28T17:58:31.656Z,24.37
2018-08-28T18:00:59.896Z,24.31
2018-08-28T18:03:28.210Z,24.24
2018-08-28T18:05:56.814Z,24.16
2018-08-28T18:08:25.078Z,24.08
2018-08-28T18:10:53.383Z,23.97
2018-08-28T18:13:21.642Z,23.88
2018-08-28T18:15:49.952Z,23.78
2018-08-28T18:18:18.258Z,23.70
2018-08-28T18:20:46.638Z,23.61
2018-08-28T18:23:14.886Z,23.52
2018-08-28T18:25:43.188Z,23.44
2018-08-28T18:28:11.557Z,23.31
2018-08-28T18:30:39.794Z,23.28
2018-08-28T18:33:08.134Z,23.21
2018-08-28T18:35:36.442Z,23.14
2018-08-28T18:38:04.806Z,23.08
2018-08-28T18:40:33.150Z,23.01
2018-08-28T18:43:01.558Z,22.94
2018-08-28T18:45:30.066Z,22.88
2018-08-28T18:47:58.414Z,22.82
2018-08-28T18:50:26.639Z,22.76
2018-08-28T18:52:54.871Z,22.73
2018-08-28T18:55:23.235Z,22.66
2018-08-28T18:57:52.657Z,22.63
2018-08-28T19:00:21.378Z,22.58
2018-08-28T19:02:51.030Z,22.53
2018-08-28T19:05:19.583Z,22.50
2018-08-28T19:07:51.152Z,22.44
2018-08-28T19:10:21.531Z,22.41
2018-08-28T19:12:50.897Z,22.36
2018-08-28T19:15:19.246Z,22.33
2018-08-28T19:17:47.618Z,22.29
2018-08-28T19:20:15.917Z,22.28
2018-08-28T19:22:44.282Z,22.24
2018-08-28T19:25:12.603Z,22.23
2018-08-28T19:27:40.991Z,22.21
2018-08-28T19:30:09.433Z,22.19
2018-08-28T19:32:37.774Z,22.18
2018-08-28T19:35:06.310Z,22.17
2018-08-28T19:37:34.656Z,22.14
2018-08-28T19:40:02.898Z,22.09
2018-08-28T19:42:31.201Z,22.05
2018-08-28T19:44:59.498Z,22.02
2018-08-28T19:47:27.779Z,22.00
2018-08-28T19:49:56.148Z,21.97
2018-08-28T19:52:24.326Z,21.95
2018-08-28T19:54:52.615Z,21.94
2018-08-28T19:57:20.909Z,21.92
2018-08-28T19:59:49.247Z,21.89
2018-08-28T20:02:17.494Z,21.86
2018-08-28T20:04:45.803Z,21.84
2018-08-28T20:07:14.090Z,21.82
2018-08-28T20:09:42.370Z,21.79
2018-08-28T20:12:10.626Z,21.76
2018-08-28T20:14:38.939Z,21.73
2018-08-28T20:17:07.170Z,21.71
2018-08-28T20:19:35.447Z,21.68
2018-08-28T20:22:03.698Z,21.65
2018-08-28T20:24:31.944Z,21.64
2018-08-28T20:27:00.258Z,21.63
2018-08-28T20:29:28.429Z,21.61
2018-08-28T20:31:56.727Z,21.58
2018-08-28T20:34:24.967Z,21.57
2018-08-28T20:36:53.320Z,21.56
2018-08-28T20:39:21.589Z,21.53
2018-08-28T20:41:49.879Z,21.49
2018-08-28T20:44:18.092Z,21.45
2018-08-28T20:46:46.321Z,21.41
2018-08-28T20:49:14.609Z,21.37
2018-08-28T20:51:42.881Z,21.36
2018-08-28T20:54:11.193Z,21.34
2018-08-28T20:56:39.574Z,21.32
2018-08-28T20:59:08.077Z,21.31
2018-08-28T21:01:36.328Z,21.28
2018-08-28T21:04:04.583Z,21.24
2018-08-28T21:06:32.825Z,21.20
2018-08-28T21:09:01.089Z,21.16
2018-08-28T21:11:29.410Z,21.14
2018-08-28T21:13:57.714Z,21.11
2018-08-28T21:16:25.989Z,21.11
2018-08-28T21:18:54.277Z,21.08
2018-08-28T21:21:22.551Z,21.05
2018-08-28T21:23:50.841Z,21.03
2018-08-28T21:26:19.180Z,21.01
2018-08-28T21:28:47.448Z,20.98
2018-08-28T21:31:15.764Z,20.96
2018-08-28T21:33:44.020Z,20.93
2018-08-28T21:36:12.318Z,20.91
2018-08-28T21:38:40.701Z,20.90
2018-08-28T21:41:08.997Z,20.88
2018-08-28T21:43:37.304Z,20.89
2018-08-28T21:46:05.528Z,20.90
2018-08-28T21:48:33.798Z,20.90
2018-08-28T21:51:02.066Z,20.89
2018-08-28T21:53:30.490Z,20.91
2018-08-28T21:55:58.733Z,20.92
2018-08-28T21:58:26.992Z,20.90
2018-08-28T22:01:00.688Z,20.89
2018-08-28T22:03:28.930Z,20.89
2018-08-28T22:05:57.202Z,20.87
2018-08-28T22:08:25.631Z,20.83
2018-08-28T22:10:54.032Z,20.81
2018-08-28T22:13:22.469Z,20.78
2018-08-28T22:15:50.716Z,20.74
2018-08-28T22:18:19.031Z,20.70
2018-08-28T22:20:52.602Z,20.69
2018-08-28T22:23:20.907Z,20.65
2018-08-28T22:25:49.388Z,20.63
2018-08-28T22:28:17.638Z,20.59
2018-08-28T22:30:45.886Z,20.57
2018-08-28T22:33:14.193Z,20.54
2018-08-28T22:35:42.923Z,20.51
2018-08-28T22:38:11.202Z,20.47
2018-08-28T22:40:39.627Z,20.42
2018-08-28T22:43:08.859Z,20.34
2018-08-28T22:45:37.334Z,20.30
2018-08-28T22:48:06.032Z,20.29
2018-08-28T22:50:34.702Z,20.29
2018-08-28T22:53:03.021Z,20.26
2018-08-28T22:55:31.421Z,20.25
2018-08-28T22:57:59.702Z,20.22
2018-08-28T23:00:27.945Z,20.20
2018-08-28T23:02:56.263Z,20.19
2018-08-28T23:05:24.526Z,20.16
2018-08-28T23:07:52.857Z,20.12
2018-08-28T23:10:21.447Z,20.09
2018-08-28T23:12:51.176Z,20.08
2018-08-28T23:15:19.526Z,20.07
2018-08-28T23:17:47.771Z,20.07
2018-08-28T23:20:16.160Z,20.06
2018-08-28T23:22:44.445Z,20.05
2018-08-28T23:25:12.744Z,20.05
2018-08-28T23:27:41.053Z,20.05
2018-08-28T23:30:09.328Z,20.04
2018-08-28T23:32:37.607Z,20.03
2018-08-28T23:35:05.983Z,20.02
2018-08-28T23:37:34.301Z,20.01
2018-08-28T23:40:02.698Z,19.98
2018-08-28T23:42:30.938Z,19.96
2018-08-28T23:44:59.231Z,19.93
2018-08-28T23:47:27.493Z,19.91
2018-08-28T23:49:55.749Z,19.89
2018-08-28T23:52:24.026Z,19.85
2018-08-28T23:54:52.291Z,19.81
2018-08-28T23:57:20.654Z,19.79
2018-08-28T23:59:48.961Z,19.76
